ADDS METAR Data INFO
IDs: Format: Raw Decoded Include TAF

Data at: 1740 UTC 15 Dec 2017

KEBS 151735Z AUTO 26016KT 10SM SCT050 04/M03 A2989 RMK AO2
KEBS 151715Z AUTO 25013KT 10SM BKN050 03/M03 A2990 RMK AO2
KEBS 151655Z AUTO 26015KT 10SM FEW044 OVC050 03/M03 A2991 RMK AO2
KEBS 151635Z AUTO 26014G20KT 10SM FEW047 BKN055 02/M03 A2992 RMK AO2
KEBS 151615Z AUTO 25015G21KT 10SM SCT055 02/M03 A2992 RMK AO2
KEBS 151555Z AUTO 25013KT 10SM OVC050 01/M03 A2991 RMK AO2
KEBS 151535Z AUTO 25013G18KT 10SM OVC050 01/M03 A2991 RMK AO2
KEBS 151515Z AUTO 25014KT 10SM OVC050 01/M04 A2991 RMK AO2
KEBS 151455Z AUTO 25012KT 10SM OVC050 00/M04 A2992 RMK AO2
KEBS 151435Z AUTO 25011KT 10SM OVC049 M00/M04 A2992 RMK AO2
KEBS 151415Z AUTO 25012KT 10SM OVC050 M00/M04 A2993 RMK AO2
KEBS 151355Z AUTO 25012KT 10SM FEW034 OVC050 M01/M04 A2993 RMK AO2
KEBS 151335Z AUTO 25012KT 10SM OVC055 M01/M04 A2994 RMK AO2
KEBS 151315Z AUTO 25012KT 10SM OVC050 M01/M04 A2994 RMK AO2
KEBS 151255Z AUTO 25010KT 10SM OVC050 M01/M04 A2995 RMK AO2
KEBS 151235Z AUTO 24009KT 10SM OVC050 M01/M04 A2994 RMK AO2
KEBS 151215Z AUTO 24010KT 10SM SCT035 OVC055 M02/M04 A2995 RMK AO2
KEBS 151155Z AUTO 24009KT 10SM BKN036 OVC050 M02/M05 A2995 RMK AO2
KEBS 151135Z AUTO 23010KT 10SM FEW038 OVC050 M02/M05 A2995 RMK AO2
KEBS 151115Z AUTO 24009KT 10SM OVC050 M02/M05 A2996 RMK AO2
KEBS 151055Z AUTO 24010KT 10SM BKN050 OVC055 M02/M05 A2996 RMK AO2
KEBS 151035Z AUTO 24009KT 10SM OVC055 M03/M05 A2997 RMK AO2
KEBS 151015Z AUTO 24009KT 10SM OVC055 M03/M05 A2998 RMK AO2
KEBS 150955Z AUTO 24008KT 10SM OVC055 M03/M06 A2999 RMK AO2
KEBS 150935Z AUTO 23008KT 10SM OVC055 M04/M06 A2999 RMK AO2
KEBS 150915Z AUTO 25008KT 10SM OVC050 M04/M06 A3000 RMK AO2
KEBS 150855Z AUTO 23008KT 10SM FEW036 OVC050 M04/M06 A2999 RMK AO2
KEBS 150835Z AUTO 24005KT 10SM BKN037 OVC050 M04/M06 A3000 RMK AO2
KEBS 150815Z AUTO 28007KT 10SM -UP OVC040 M04/M06 A3002 RMK AO2
KEBS 150755Z AUTO 27007KT 10SM OVC039 M04/M06 A3002 RMK AO2
KEBS 150735Z AUTO 28006KT 10SM OVC038 M04/M06 A3003 RMK AO2
KEBS 150715Z AUTO 28006KT 10SM OVC041 M04/M06 A3003 RMK AO2
KEBS 150655Z AUTO 29007KT 10SM BKN043 M05/M07 A3003 RMK AO2
KEBS 150635Z AUTO 30007KT 10SM CLR M05/M07 A3004 RMK AO2
KEBS 150615Z AUTO 32010KT 10SM BKN017 M04/M06 A3003 RMK AO2
KEBS 150555Z AUTO 32011KT 10SM BKN017 OVC022 M03/M05 A3004 RMK AO2
KEBS 150535Z AUTO 32014KT 10SM SCT013 OVC022 M02/M05 A3004 RMK AO2
KEBS 150515Z AUTO 32016G24KT 10SM -UP OVC012 M02/M04 A3005 RMK AO2
KEBS 150455Z AUTO 32011KT 10SM BKN008 OVC014 M02/M04 A3005 RMK AO2
KEBS 150435Z AUTO 32010KT 5SM -UP SCT009 OVC016 M02/M04 A3005 RMK AO2
KEBS 150415Z AUTO 32009KT 7SM BKN019 OVC025 M02/M04 A3004 RMK AO2
KEBS 150355Z AUTO 32009KT 8SM -UP OVC020 M02/M04 A3004 RMK AO2
KEBS 150335Z AUTO 34009KT 9SM OVC021 M02/M04 A3005 RMK AO2
KEBS 150315Z AUTO 32007KT 8SM -UP OVC024 M01/M05 A3004 RMK AO2
KEBS 150255Z AUTO 30006KT 10SM OVC025 M01/M05 A3004 RMK AO2
KEBS 150235Z AUTO 29004KT 10SM OVC027 M01/M05 A3004 RMK AO2
KEBS 150215Z AUTO 30006KT 10SM OVC029 M01/M05 A3005 RMK AO2
KEBS 150155Z AUTO 28005KT 10SM BKN031 OVC040 M01/M05 A3004 RMK AO2
KEBS 150135Z AUTO 29005KT 10SM OVC037 M01/M05 A3005 RMK AO2
KEBS 150115Z AUTO 28005KT 10SM OVC038 M02/M06 A3005 RMK AO2
KEBS 150055Z AUTO 27005KT 10SM BKN038 BKN050 OVC085 M02/M07 A3004 RMK AO2
KEBS 150035Z AUTO 27005KT 10SM FEW040 SCT050 OVC085 M02/M06 A3004 RMK AO2
KEBS 150015Z AUTO 28005KT 10SM FEW032 SCT047 BKN075 M02/M06 A3004 RMK AO2
KEBS 142355Z AUTO 28005KT 10SM FEW027 SCT080 OVC085 M01/M06 A3003 RMK AO2
KEBS 142335Z AUTO 28005KT 10SM SCT026 BKN031 OVC085 M01/M06 A3004 RMK AO2
KEBS 142315Z AUTO 30007KT 10SM OVC027 M01/M06 A3004 RMK AO2
KEBS 142255Z AUTO 30008KT 10SM OVC027 M00/M06 A3003 RMK AO2
KEBS 142235Z AUTO 29008KT 10SM OVC027 M01/M06 A3002 RMK AO2
KEBS 142215Z AUTO 30005KT 10SM OVC027 M01/M06 A3002 RMK AO2
KEBS 142155Z AUTO 31007KT 10SM OVC025 M01/M06 A3003 RMK AO2
KEBS 142135Z AUTO 31010KT 10SM OVC025 M01/M07 A3003 RMK AO2
KEBS 142115Z AUTO 32011G17KT 10SM OVC025 M01/M07 A3003 RMK AO2
KEBS 142055Z AUTO 32013KT 10SM OVC025 M00/M07 A3002 RMK AO2
KEBS 142035Z AUTO 31014KT 10SM OVC026 M00/M07 A3002 RMK AO2
KEBS 142015Z AUTO 28009KT 10SM OVC026 M01/M07 A3002 RMK AO2
KEBS 141955Z AUTO 29008KT 10SM OVC027 M01/M07 A3002 RMK AO2
KEBS 141935Z AUTO 29008KT 10SM OVC025 M01/M07 A3002 RMK AO2
KEBS 141915Z AUTO 29007KT 10SM OVC025 M01/M07 A3003 RMK AO2
KEBS 141855Z AUTO 27007KT 10SM OVC024 M01/M07 A3002 RMK AO2
KEBS 141835Z AUTO 30005KT 10SM OVC023 M02/M07 A3003 RMK AO2
KEBS 141815Z AUTO 30005KT 10SM OVC024 M02/M08 A3003 RMK AO2
KEBS 141755Z AUTO 26005KT 10SM OVC025 M02/M08 A3004 RMK AO2
KEBS 141735Z AUTO 26005KT 10SM OVC026 M03/M08 A3004 RMK AO2
KEBS 141715Z AUTO 27005KT 10SM OVC026 M03/M08 A3005 RMK AO2
KEBS 141655Z AUTO 29004KT 10SM OVC027 M03/M08 A3005 RMK AO2
KEBS 141635Z AUTO 31004KT 10SM FEW020 OVC027 M03/M08 A3005 RMK AO2
KEBS 141615Z AUTO 00000KT 10SM BKN021 OVC026 M04/M08 A3005 RMK AO2
KEBS 141555Z AUTO 00000KT 10SM OVC020 M04/M08 A3005 RMK AO2
KEBS 141535Z AUTO 00000KT 10SM OVC020 M04/M09 A3005 RMK AO2
KEBS 141515Z AUTO 00000KT 10SM OVC020 M05/M08 A3005 RMK AO2
KEBS 141455Z AUTO 00000KT 10SM OVC020 M05/M09 A3004 RMK AO2
KEBS 141435Z AUTO 00000KT 10SM OVC020 M06/M09 A3004 RMK AO2
KEBS 141415Z AUTO 00000KT 10SM OVC020 M06/M09 A3003 RMK AO2
KEBS 141355Z AUTO 05004KT 10SM OVC021 M06/M08 A3003 RMK AO2
KEBS 141335Z AUTO 00000KT 10SM OVC021 M06/M09 A3003 RMK AO2
KEBS 141315Z AUTO 31003KT 10SM OVC022 M06/M09 A3003 RMK AO2
KEBS 141255Z AUTO 33004KT 10SM OVC022 M06/M09 A3003 RMK AO2
KEBS 141235Z AUTO 31004KT 10SM OVC023 M06/M09 A3003 RMK AO2
KEBS 141215Z AUTO 30005KT 10SM OVC024 M06/M09 A3002 RMK AO2
KEBS 141155Z AUTO 28005KT 10SM OVC024 M07/M09 A3001 RMK AO2
KEBS 141135Z AUTO 00000KT 10SM OVC023 M07/M09 A3000 RMK AO2
KEBS 141115Z AUTO 00000KT 10SM OVC022 M07/M09 A3000 RMK AO2
KEBS 141055Z AUTO 29004KT 10SM OVC022 M07/M09 A2999 RMK AO2
KEBS 141035Z AUTO 00000KT 10SM OVC023 M08/M10 A2999 RMK AO2
KEBS 141015Z AUTO 30003KT 10SM OVC024 M08/M10 A2999 RMK AO2
KEBS 140955Z AUTO 32004KT 10SM OVC025 M08/M10 A2998 RMK AO2
KEBS 140935Z AUTO 31006KT 10SM BKN026 M09/M11 A2997 RMK AO2
KEBS 140915Z AUTO 32006KT 10SM FEW025 M09/M11 A2997 RMK AO2
KEBS 140855Z AUTO 35005KT 10SM FEW025 M08/M10 A2997 RMK AO2
KEBS 140835Z AUTO 01005KT 10SM CLR M07/M10 A2997 RMK AO2
KEBS 140815Z AUTO 36007KT 10SM CLR M08/M10 A2997 RMK AO2
KEBS 140755Z AUTO 36007KT 10SM SCT027 M07/M10 A2996 RMK AO2
KEBS 140735Z AUTO 35005KT 10SM BKN027 M07/M09 A2996 RMK AO2
KEBS 140715Z AUTO 36006KT 10SM FEW028 M06/M09 A2995 RMK AO2
KEBS 140655Z AUTO 35008KT 10SM FEW026 M05/M09 A2995 RMK AO2
KEBS 140635Z AUTO 36009KT 10SM BKN024 M04/M08 A2994 RMK AO2
KEBS 140555Z AUTO 36013KT 10SM BKN022 OVC031 M03/M08 A2994 RMK AO2